sensor_id;sensor_type;location;lat;lon;timestamp;P1;durP1;ratioP1;P2;durP2;ratioP2
11086;SDS011;5597;47.588;9.642;2023-04-25T00:02:16;3.83;;;2.33;;
11086;SDS011;5597;47.588;9.642;2023-04-25T00:04:42;2.23;;;2.03;;
11086;SDS011;5597;47.588;9.642;2023-04-25T00:07:08;3.10;;;2.30;;
11086;SDS011;5597;47.588;9.642;2023-04-25T00:09:34;2.97;;;2.70;;
11086;SDS011;5597;47.588;9.642;2023-04-25T00:11:59;2.30;;;2.10;;
11086;SDS011;5597;47.588;9.642;2023-04-25T00:14:26;2.30;;;1.90;;
11086;SDS011;5597;47.588;9.642;2023-04-25T00:16:52;2.23;;;2.03;;
11086;SDS011;5597;47.588;9.642;2023-04-25T00:19:19;2.40;;;2.20;;
11086;SDS011;5597;47.588;9.642;2023-04-25T00:21:44;2.50;;;2.27;;
11086;SDS011;5597;47.588;9.642;2023-04-25T00:24:11;2.33;;;2.13;;
11086;SDS011;5597;47.588;9.642;2023-04-25T00:26:37;2.70;;;2.17;;
11086;SDS011;5597;47.588;9.642;2023-04-25T00:29:02;2.30;;;2.07;;
11086;SDS011;5597;47.588;9.642;2023-04-25T00:31:28;2.50;;;2.23;;
11086;SDS011;5597;47.588;9.642;2023-04-25T00:33:54;2.47;;;2.27;;
11086;SDS011;5597;47.588;9.642;2023-04-25T00:36:20;2.40;;;2.20;;
11086;SDS011;5597;47.588;9.642;2023-04-25T00:38:45;2.73;;;2.10;;
11086;SDS011;5597;47.588;9.642;2023-04-25T00:41:11;2.83;;;2.37;;
11086;SDS011;5597;47.588;9.642;2023-04-25T00:43:37;3.10;;;2.40;;
11086;SDS011;5597;47.588;9.642;2023-04-25T00:46:04;2.80;;;2.60;;
11086;SDS011;5597;47.588;9.642;2023-04-25T00:48:30;3.10;;;2.80;;
11086;SDS011;5597;47.588;9.642;2023-04-25T00:50:57;3.20;;;2.90;;
11086;SDS011;5597;47.588;9.642;2023-04-25T00:53:24;3.07;;;2.80;;
11086;SDS011;5597;47.588;9.642;2023-04-25T00:55:51;3.10;;;2.80;;
11086;SDS011;5597;47.588;9.642;2023-04-25T00:58:18;3.17;;;2.77;;
11086;SDS011;5597;47.588;9.642;2023-04-25T01:00:45;3.00;;;2.70;;
11086;SDS011;5597;47.588;9.642;2023-04-25T01:03:12;2.67;;;2.43;;
11086;SDS011;5597;47.588;9.642;2023-04-25T01:05:39;2.70;;;2.50;;
11086;SDS011;5597;47.588;9.642;2023-04-25T01:08:08;3.20;;;2.90;;
11086;SDS011;5597;47.588;9.642;2023-04-25T01:10:33;3.00;;;2.70;;
11086;SDS011;5597;47.588;9.642;2023-04-25T01:12:59;2.37;;;2.17;;
11086;SDS011;5597;47.588;9.642;2023-04-25T01:15:25;3.17;;;2.37;;
11086;SDS011;5597;47.588;9.642;2023-04-25T01:17:50;3.47;;;2.90;;
11086;SDS011;5597;47.588;9.642;2023-04-25T01:20:17;2.90;;;2.60;;
11086;SDS011;5597;47.588;9.642;2023-04-25T01:22:45;3.07;;;2.80;;
11086;SDS011;5597;47.588;9.642;2023-04-25T01:25:11;3.13;;;2.87;;
11086;SDS011;5597;47.588;9.642;2023-04-25T01:27:37;3.10;;;2.80;;
11086;SDS011;5597;47.588;9.642;2023-04-25T01:30:03;3.50;;;3.20;;
11086;SDS011;5597;47.588;9.642;2023-04-25T01:32:30;2.97;;;2.73;;
11086;SDS011;5597;47.588;9.642;2023-04-25T01:35:03;2.80;;;2.60;;
11086;SDS011;5597;47.588;9.642;2023-04-25T01:37:34;3.13;;;2.80;;
11086;SDS011;5597;47.588;9.642;2023-04-25T01:40:02;2.90;;;2.63;;
11086;SDS011;5597;47.588;9.642;2023-04-25T01:42:30;3.30;;;2.90;;
11086;SDS011;5597;47.588;9.642;2023-04-25T01:44:56;3.17;;;2.77;;
11086;SDS011;5597;47.588;9.642;2023-04-25T01:47:22;3.07;;;2.50;;
11086;SDS011;5597;47.588;9.642;2023-04-25T01:49:48;3.03;;;2.50;;
11086;SDS011;5597;47.588;9.642;2023-04-25T01:52:13;2.47;;;2.27;;
11086;SDS011;5597;47.588;9.642;2023-04-25T01:54:39;3.00;;;2.70;;
11086;SDS011;5597;47.588;9.642;2023-04-25T01:57:08;4.27;;;3.60;;
11086;SDS011;5597;47.588;9.642;2023-04-25T01:59:34;3.47;;;3.10;;
11086;SDS011;5597;47.588;9.642;2023-04-25T02:02:01;3.33;;;2.97;;
11086;SDS011;5597;47.588;9.642;2023-04-25T02:04:28;4.10;;;3.70;;
11086;SDS011;5597;47.588;9.642;2023-04-25T02:06:57;3.00;;;2.70;;
11086;SDS011;5597;47.588;9.642;2023-04-25T02:09:23;3.13;;;2.83;;
11086;SDS011;5597;47.588;9.642;2023-04-25T02:11:48;3.70;;;3.03;;
11086;SDS011;5597;47.588;9.642;2023-04-25T02:14:14;3.97;;;3.50;;
11086;SDS011;5597;47.588;9.642;2023-04-25T02:16:40;4.93;;;3.30;;
11086;SDS011;5597;47.588;9.642;2023-04-25T02:19:06;4.27;;;3.00;;
11086;SDS011;5597;47.588;9.642;2023-04-25T02:21:32;2.90;;;2.60;;
11086;SDS011;5597;47.588;9.642;2023-04-25T02:24:00;3.40;;;2.60;;
11086;SDS011;5597;47.588;9.642;2023-04-25T02:26:26;2.70;;;2.50;;
11086;SDS011;5597;47.588;9.642;2023-04-25T02:28:52;2.67;;;2.40;;
11086;SDS011;5597;47.588;9.642;2023-04-25T02:31:17;2.93;;;2.40;;
11086;SDS011;5597;47.588;9.642;2023-04-25T02:33:43;2.73;;;2.40;;
11086;SDS011;5597;47.588;9.642;2023-04-25T02:36:09;2.87;;;2.67;;
11086;SDS011;5597;47.588;9.642;2023-04-25T02:38:35;2.60;;;2.37;;
11086;SDS011;5597;47.588;9.642;2023-04-25T02:41:00;3.03;;;2.60;;
11086;SDS011;5597;47.588;9.642;2023-04-25T02:43:26;2.77;;;2.50;;
11086;SDS011;5597;47.588;9.642;2023-04-25T02:45:52;3.30;;;2.87;;
11086;SDS011;5597;47.588;9.642;2023-04-25T02:48:17;2.57;;;2.37;;
11086;SDS011;5597;47.588;9.642;2023-04-25T02:50:43;2.73;;;2.47;;
11086;SDS011;5597;47.588;9.642;2023-04-25T02:53:08;3.60;;;2.53;;
11086;SDS011;5597;47.588;9.642;2023-04-25T02:55:34;2.70;;;2.50;;
11086;SDS011;5597;47.588;9.642;2023-04-25T02:57:59;2.80;;;2.50;;
11086;SDS011;5597;47.588;9.642;2023-04-25T03:00:25;2.80;;;2.50;;
11086;SDS011;5597;47.588;9.642;2023-04-25T03:02:51;2.80;;;2.50;;
11086;SDS011;5597;47.588;9.642;2023-04-25T03:05:16;3.83;;;2.63;;
11086;SDS011;5597;47.588;9.642;2023-04-25T03:07:42;2.87;;;2.63;;
11086;SDS011;5597;47.588;9.642;2023-04-25T03:10:09;3.10;;;2.80;;
11086;SDS011;5597;47.588;9.642;2023-04-25T03:12:35;3.13;;;2.70;;
11086;SDS011;5597;47.588;9.642;2023-04-25T03:15:01;3.07;;;2.77;;
11086;SDS011;5597;47.588;9.642;2023-04-25T03:17:27;2.60;;;2.40;;
11086;SDS011;5597;47.588;9.642;2023-04-25T03:19:53;2.87;;;2.57;;
11086;SDS011;5597;47.588;9.642;2023-04-25T03:22:19;2.77;;;2.30;;
11086;SDS011;5597;47.588;9.642;2023-04-25T03:24:44;2.57;;;2.37;;
11086;SDS011;5597;47.588;9.642;2023-04-25T03:27:10;2.80;;;2.27;;
11086;SDS011;5597;47.588;9.642;2023-04-25T03:29:36;3.17;;;2.77;;
11086;SDS011;5597;47.588;9.642;2023-04-25T03:32:01;3.10;;;2.80;;
11086;SDS011;5597;47.588;9.642;2023-04-25T03:34:27;3.00;;;2.70;;
11086;SDS011;5597;47.588;9.642;2023-04-25T03:36:53;3.20;;;2.80;;
11086;SDS011;5597;47.588;9.642;2023-04-25T03:39:18;3.33;;;2.63;;
11086;SDS011;5597;47.588;9.642;2023-04-25T03:41:44;3.97;;;2.70;;
11086;SDS011;5597;47.588;9.642;2023-04-25T03:44:09;3.27;;;2.93;;
11086;SDS011;5597;47.588;9.642;2023-04-25T03:46:35;3.80;;;2.87;;
11086;SDS011;5597;47.588;9.642;2023-04-25T03:49:01;2.90;;;2.57;;
11086;SDS011;5597;47.588;9.642;2023-04-25T03:51:26;3.30;;;2.87;;
11086;SDS011;5597;47.588;9.642;2023-04-25T03:53:52;2.47;;;2.27;;
11086;SDS011;5597;47.588;9.642;2023-04-25T03:56:18;2.50;;;2.30;;
11086;SDS011;5597;47.588;9.642;2023-04-25T03:58:43;3.00;;;2.60;;
11086;SDS011;5597;47.588;9.642;2023-04-25T04:01:09;2.50;;;2.30;;
11086;SDS011;5597;47.588;9.642;2023-04-25T04:03:35;3.40;;;2.50;;
11086;SDS011;5597;47.588;9.642;2023-04-25T04:06:02;3.30;;;2.70;;
11086;SDS011;5597;47.588;9.642;2023-04-25T04:08:31;3.50;;;2.40;;
11086;SDS011;5597;47.588;9.642;2023-04-25T04:10:57;2.67;;;2.47;;
11086;SDS011;5597;47.588;9.642;2023-04-25T04:13:25;2.70;;;2.37;;
11086;SDS011;5597;47.588;9.642;2023-04-25T04:15:51;2.47;;;2.20;;
11086;SDS011;5597;47.588;9.642;2023-04-25T04:18:17;2.80;;;2.50;;
11086;SDS011;5597;47.588;9.642;2023-04-25T04:20:42;3.03;;;2.47;;
11086;SDS011;5597;47.588;9.642;2023-04-25T04:23:08;3.37;;;2.67;;
11086;SDS011;5597;47.588;9.642;2023-04-25T04:25:33;2.83;;;2.63;;
11086;SDS011;5597;47.588;9.642;2023-04-25T04:27:59;3.00;;;2.70;;
11086;SDS011;5597;47.588;9.642;2023-04-25T04:30:26;2.60;;;2.23;;
11086;SDS011;5597;47.588;9.642;2023-04-25T04:32:54;2.80;;;2.50;;
11086;SDS011;5597;47.588;9.642;2023-04-25T04:35:23;3.07;;;2.63;;
11086;SDS011;5597;47.588;9.642;2023-04-25T04:37:49;3.83;;;2.93;;
11086;SDS011;5597;47.588;9.642;2023-04-25T04:40:15;3.37;;;3.07;;
11086;SDS011;5597;47.588;9.642;2023-04-25T04:42:41;3.40;;;3.00;;
11086;SDS011;5597;47.588;9.642;2023-04-25T04:45:08;3.23;;;2.90;;
11086;SDS011;5597;47.588;9.642;2023-04-25T04:47:35;3.00;;;2.70;;
11086;SDS011;5597;47.588;9.642;2023-04-25T04:50:01;3.57;;;3.00;;
11086;SDS011;5597;47.588;9.642;2023-04-25T04:52:33;2.90;;;2.60;;
11086;SDS011;5597;47.588;9.642;2023-04-25T04:54:59;3.57;;;2.93;;
11086;SDS011;5597;47.588;9.642;2023-04-25T04:57:25;3.40;;;3.10;;
11086;SDS011;5597;47.588;9.642;2023-04-25T04:59:51;3.93;;;3.33;;
11086;SDS011;5597;47.588;9.642;2023-04-25T05:02:17;3.30;;;3.00;;
11086;SDS011;5597;47.588;9.642;2023-04-25T05:04:42;3.17;;;2.87;;
11086;SDS011;5597;47.588;9.642;2023-04-25T05:07:08;3.63;;;3.20;;
11086;SDS011;5597;47.588;9.642;2023-04-25T05:09:34;3.47;;;2.90;;
11086;SDS011;5597;47.588;9.642;2023-04-25T05:11:59;3.47;;;3.13;;
11086;SDS011;5597;47.588;9.642;2023-04-25T05:14:26;3.27;;;2.93;;
11086;SDS011;5597;47.588;9.642;2023-04-25T05:16:51;4.77;;;3.23;;
11086;SDS011;5597;47.588;9.642;2023-04-25T05:19:17;3.57;;;3.27;;
11086;SDS011;5597;47.588;9.642;2023-04-25T05:21:42;3.47;;;2.80;;
11086;SDS011;5597;47.588;9.642;2023-04-25T05:24:08;3.50;;;3.20;;
11086;SDS011;5597;47.588;9.642;2023-04-25T05:26:33;3.10;;;2.90;;
11086;SDS011;5597;47.588;9.642;2023-04-25T05:28:59;3.10;;;2.80;;
11086;SDS011;5597;47.588;9.642;2023-04-25T05:31:25;4.03;;;3.20;;
11086;SDS011;5597;47.588;9.642;2023-04-25T05:33:51;4.17;;;3.37;;
11086;SDS011;5597;47.588;9.642;2023-04-25T05:36:18;3.97;;;3.20;;
11086;SDS011;5597;47.588;9.642;2023-04-25T05:38:44;3.50;;;2.90;;
11086;SDS011;5597;47.588;9.642;2023-04-25T05:41:10;3.73;;;3.07;;
11086;SDS011;5597;47.588;9.642;2023-04-25T05:43:35;3.70;;;3.17;;
11086;SDS011;5597;47.588;9.642;2023-04-25T05:46:01;3.90;;;3.23;;
11086;SDS011;5597;47.588;9.642;2023-04-25T05:48:26;3.87;;;3.47;;
11086;SDS011;5597;47.588;9.642;2023-04-25T05:50:52;5.07;;;3.20;;
11086;SDS011;5597;47.588;9.642;2023-04-25T05:53:18;3.87;;;3.30;;
11086;SDS011;5597;47.588;9.642;2023-04-25T05:55:45;3.83;;;3.10;;
11086;SDS011;5597;47.588;9.642;2023-04-25T05:58:11;4.43;;;3.20;;
11086;SDS011;5597;47.588;9.642;2023-04-25T06:00:37;4.17;;;3.50;;
11086;SDS011;5597;47.588;9.642;2023-04-25T06:03:03;3.73;;;3.30;;
11086;SDS011;5597;47.588;9.642;2023-04-25T06:05:29;3.50;;;3.20;;
11086;SDS011;5597;47.588;9.642;2023-04-25T06:07:54;3.40;;;2.97;;
11086;SDS011;5597;47.588;9.642;2023-04-25T06:10:20;4.27;;;3.10;;
11086;SDS011;5597;47.588;9.642;2023-04-25T06:12:46;5.53;;;3.37;;
11086;SDS011;5597;47.588;9.642;2023-04-25T06:15:11;3.20;;;2.90;;
11086;SDS011;5597;47.588;9.642;2023-04-25T06:17:37;3.37;;;2.93;;
11086;SDS011;5597;47.588;9.642;2023-04-25T06:20:02;3.97;;;3.57;;
11086;SDS011;5597;47.588;9.642;2023-04-25T06:22:29;3.73;;;3.30;;
11086;SDS011;5597;47.588;9.642;2023-04-25T06:24:54;3.67;;;3.20;;
11086;SDS011;5597;47.588;9.642;2023-04-25T06:27:22;5.30;;;3.30;;
11086;SDS011;5597;47.588;9.642;2023-04-25T06:29:47;3.73;;;3.07;;
11086;SDS011;5597;47.588;9.642;2023-04-25T06:32:13;4.40;;;3.50;;
11086;SDS011;5597;47.588;9.642;2023-04-25T06:34:39;3.50;;;3.20;;
11086;SDS011;5597;47.588;9.642;2023-04-25T06:37:04;2.83;;;2.57;;
11086;SDS011;5597;47.588;9.642;2023-04-25T06:39:30;3.23;;;2.93;;
11086;SDS011;5597;47.588;9.642;2023-04-25T06:41:55;4.13;;;2.57;;
11086;SDS011;5597;47.588;9.642;2023-04-25T06:44:21;3.13;;;2.50;;
11086;SDS011;5597;47.588;9.642;2023-04-25T06:46:49;2.83;;;2.53;;
11086;SDS011;5597;47.588;9.642;2023-04-25T06:49:14;3.37;;;2.60;;
11086;SDS011;5597;47.588;9.642;2023-04-25T06:51:40;5.20;;;2.83;;
11086;SDS011;5597;47.588;9.642;2023-04-25T06:54:06;2.50;;;2.30;;
11086;SDS011;5597;47.588;9.642;2023-04-25T06:56:31;3.80;;;2.53;;
11086;SDS011;5597;47.588;9.642;2023-04-25T06:58:57;3.57;;;2.80;;
11086;SDS011;5597;47.588;9.642;2023-04-25T07:01:23;2.57;;;2.30;;
11086;SDS011;5597;47.588;9.642;2023-04-25T07:03:48;2.43;;;2.20;;
11086;SDS011;5597;47.588;9.642;2023-04-25T07:06:14;2.63;;;2.43;;
11086;SDS011;5597;47.588;9.642;2023-04-25T07:08:40;2.60;;;2.20;;
11086;SDS011;5597;47.588;9.642;2023-04-25T07:11:05;4.33;;;2.53;;
11086;SDS011;5597;47.588;9.642;2023-04-25T07:13:31;3.13;;;2.80;;
11086;SDS011;5597;47.588;9.642;2023-04-25T07:15:56;3.37;;;2.30;;
11086;SDS011;5597;47.588;9.642;2023-04-25T07:18:22;2.83;;;2.60;;
11086;SDS011;5597;47.588;9.642;2023-04-25T07:20:48;3.50;;;2.07;;
11086;SDS011;5597;47.588;9.642;2023-04-25T07:23:13;2.93;;;1.90;;
11086;SDS011;5597;47.588;9.642;2023-04-25T07:25:39;2.30;;;2.00;;
11086;SDS011;5597;47.588;9.642;2023-04-25T07:28:04;2.43;;;1.70;;
11086;SDS011;5597;47.588;9.642;2023-04-25T07:30:30;2.00;;;1.70;;
11086;SDS011;5597;47.588;9.642;2023-04-25T07:32:56;3.10;;;2.20;;
11086;SDS011;5597;47.588;9.642;2023-04-25T07:35:21;3.17;;;2.10;;
11086;SDS011;5597;47.588;9.642;2023-04-25T07:37:47;2.20;;;2.00;;
11086;SDS011;5597;47.588;9.642;2023-04-25T07:40:13;3.43;;;2.20;;
11086;SDS011;5597;47.588;9.642;2023-04-25T07:42:41;2.57;;;1.87;;
11086;SDS011;5597;47.588;9.642;2023-04-25T07:45:07;2.73;;;2.00;;
11086;SDS011;5597;47.588;9.642;2023-04-25T07:47:34;2.67;;;1.87;;
11086;SDS011;5597;47.588;9.642;2023-04-25T07:49:59;3.07;;;1.90;;
11086;SDS011;5597;47.588;9.642;2023-04-25T07:52:25;2.37;;;1.97;;
11086;SDS011;5597;47.588;9.642;2023-04-25T07:54:51;2.73;;;2.00;;
11086;SDS011;5597;47.588;9.642;2023-04-25T07:57:17;2.20;;;1.73;;
11086;SDS011;5597;47.588;9.642;2023-04-25T07:59:43;3.23;;;1.60;;
11086;SDS011;5597;47.588;9.642;2023-04-25T08:02:09;3.57;;;1.70;;
11086;SDS011;5597;47.588;9.642;2023-04-25T08:04:34;4.47;;;1.80;;
11086;SDS011;5597;47.588;9.642;2023-04-25T08:07:00;2.60;;;1.80;;
11086;SDS011;5597;47.588;9.642;2023-04-25T08:09:26;2.93;;;1.70;;
11086;SDS011;5597;47.588;9.642;2023-04-25T08:11:51;2.90;;;1.90;;
11086;SDS011;5597;47.588;9.642;2023-04-25T08:14:17;2.27;;;1.70;;
11086;SDS011;5597;47.588;9.642;2023-04-25T08:16:42;3.13;;;1.67;;
11086;SDS011;5597;47.588;9.642;2023-04-25T08:19:08;4.40;;;2.10;;
11086;SDS011;5597;47.588;9.642;2023-04-25T08:21:35;2.80;;;1.97;;
11086;SDS011;5597;47.588;9.642;2023-04-25T08:24:00;4.33;;;2.30;;
11086;SDS011;5597;47.588;9.642;2023-04-25T08:26:26;2.27;;;1.77;;
11086;SDS011;5597;47.588;9.642;2023-04-25T08:28:51;2.90;;;1.80;;
11086;SDS011;5597;47.588;9.642;2023-04-25T08:31:17;2.60;;;1.80;;
11086;SDS011;5597;47.588;9.642;2023-04-25T08:33:43;2.40;;;1.90;;
11086;SDS011;5597;47.588;9.642;2023-04-25T08:36:10;2.67;;;1.80;;
11086;SDS011;5597;47.588;9.642;2023-04-25T08:38:36;2.17;;;1.60;;
11086;SDS011;5597;47.588;9.642;2023-04-25T08:41:01;2.77;;;1.70;;
11086;SDS011;5597;47.588;9.642;2023-04-25T08:43:28;2.53;;;1.60;;
11086;SDS011;5597;47.588;9.642;2023-04-25T08:45:55;3.80;;;1.70;;
11086;SDS011;5597;47.588;9.642;2023-04-25T08:48:28;2.53;;;1.60;;
11086;SDS011;5597;47.588;9.642;2023-04-25T08:50:57;2.20;;;1.50;;
11086;SDS011;5597;47.588;9.642;2023-04-25T08:53:26;1.93;;;1.57;;
11086;SDS011;5597;47.588;9.642;2023-04-25T08:55:53;1.70;;;1.60;;
11086;SDS011;5597;47.588;9.642;2023-04-25T08:58:21;2.00;;;1.40;;
11086;SDS011;5597;47.588;9.642;2023-04-25T09:00:47;2.30;;;1.50;;
11086;SDS011;5597;47.588;9.642;2023-04-25T09:03:13;2.57;;;1.70;;
11086;SDS011;5597;47.588;9.642;2023-04-25T09:05:40;2.30;;;1.60;;
11086;SDS011;5597;47.588;9.642;2023-04-25T09:08:06;2.53;;;1.60;;
11086;SDS011;5597;47.588;9.642;2023-04-25T09:10:32;1.70;;;1.40;;
11086;SDS011;5597;47.588;9.642;2023-04-25T09:13:08;1.43;;;1.33;;
11086;SDS011;5597;47.588;9.642;2023-04-25T09:15:49;3.57;;;1.40;;
11086;SDS011;5597;47.588;9.642;2023-04-25T09:18:26;1.33;;;1.23;;
11086;SDS011;5597;47.588;9.642;2023-04-25T09:20:53;1.40;;;1.30;;
11086;SDS011;5597;47.588;9.642;2023-04-25T09:23:20;3.47;;;1.60;;
11086;SDS011;5597;47.588;9.642;2023-04-25T09:25:47;1.50;;;1.30;;
11086;SDS011;5597;47.588;9.642;2023-04-25T09:28:16;2.77;;;1.50;;
11086;SDS011;5597;47.588;9.642;2023-04-25T09:30:49;2.10;;;1.30;;
11086;SDS011;5597;47.588;9.642;2023-04-25T09:33:19;2.73;;;1.57;;
11086;SDS011;5597;47.588;9.642;2023-04-25T09:35:47;3.17;;;1.93;;
11086;SDS011;5597;47.588;9.642;2023-04-25T09:38:17;3.23;;;2.00;;
11086;SDS011;5597;47.588;9.642;2023-04-25T09:40:44;1.97;;;1.37;;
11086;SDS011;5597;47.588;9.642;2023-04-25T09:43:21;2.60;;;1.60;;
11086;SDS011;5597;47.588;9.642;2023-04-25T09:45:47;1.83;;;1.37;;
11086;SDS011;5597;47.588;9.642;2023-04-25T09:48:21;1.77;;;1.30;;
11086;SDS011;5597;47.588;9.642;2023-04-25T09:53:34;1.00;;;0.90;;
11086;SDS011;5597;47.588;9.642;2023-04-25T09:56:03;0.93;;;0.93;;
11086;SDS011;5597;47.588;9.642;2023-04-25T09:58:33;1.80;;;0.70;;
11086;SDS011;5597;47.588;9.642;2023-04-25T10:01:01;2.00;;;0.80;;
11086;SDS011;5597;47.588;9.642;2023-04-25T10:03:31;0.80;;;0.70;;
11086;SDS011;5597;47.588;9.642;2023-04-25T10:06:08;1.00;;;0.80;;
11086;SDS011;5597;47.588;9.642;2023-04-25T10:08:38;1.00;;;0.90;;
11086;SDS011;5597;47.588;9.642;2023-04-25T10:11:07;2.23;;;1.20;;
11086;SDS011;5597;47.588;9.642;2023-04-25T10:13:33;1.60;;;1.10;;
11086;SDS011;5597;47.588;9.642;2023-04-25T10:16:02;1.83;;;1.20;;
11086;SDS011;5597;47.588;9.642;2023-04-25T10:18:30;1.60;;;1.20;;
11086;SDS011;5597;47.588;9.642;2023-04-25T10:20:57;1.57;;;1.20;;
11086;SDS011;5597;47.588;9.642;2023-04-25T10:23:24;2.63;;;1.47;;
11086;SDS011;5597;47.588;9.642;2023-04-25T10:25:51;1.50;;;1.33;;
11086;SDS011;5597;47.588;9.642;2023-04-25T10:28:17;1.60;;;1.50;;
11086;SDS011;5597;47.588;9.642;2023-04-25T10:31:03;2.00;;;1.60;;
11086;SDS011;5597;47.588;9.642;2023-04-25T10:33:39;2.07;;;1.60;;
11086;SDS011;5597;47.588;9.642;2023-04-25T10:38:37;2.33;;;1.80;;
11086;SDS011;5597;47.588;9.642;2023-04-25T10:41:07;1.90;;;1.60;;
11086;SDS011;5597;47.588;9.642;2023-04-25T10:43:41;2.30;;;1.53;;
11086;SDS011;5597;47.588;9.642;2023-04-25T10:46:27;2.37;;;2.07;;
11086;SDS011;5597;47.588;9.642;2023-04-25T10:48:56;1.60;;;1.50;;
11086;SDS011;5597;47.588;9.642;2023-04-25T10:51:24;1.60;;;1.50;;
11086;SDS011;5597;47.588;9.642;2023-04-25T10:56:21;1.87;;;1.43;;
11086;SDS011;5597;47.588;9.642;2023-04-25T10:58:48;2.47;;;1.70;;
11086;SDS011;5597;47.588;9.642;2023-04-25T11:01:14;1.87;;;1.63;;
11086;SDS011;5597;47.588;9.642;2023-04-25T11:03:44;3.07;;;1.50;;
11086;SDS011;5597;47.588;9.642;2023-04-25T11:06:23;1.80;;;1.63;;
11086;SDS011;5597;47.588;9.642;2023-04-25T11:09:10;2.00;;;1.70;;
11086;SDS011;5597;47.588;9.642;2023-04-25T11:11:40;2.07;;;1.43;;
11086;SDS011;5597;47.588;9.642;2023-04-25T11:14:05;1.87;;;1.63;;
11086;SDS011;5597;47.588;9.642;2023-04-25T11:16:31;1.67;;;1.50;;
11086;SDS011;5597;47.588;9.642;2023-04-25T11:18:57;1.93;;;1.60;;
11086;SDS011;5597;47.588;9.642;2023-04-25T11:21:23;1.43;;;1.33;;
11086;SDS011;5597;47.588;9.642;2023-04-25T11:23:51;1.50;;;1.30;;
11086;SDS011;5597;47.588;9.642;2023-04-25T11:26:16;2.03;;;1.30;;
11086;SDS011;5597;47.588;9.642;2023-04-25T11:28:45;1.63;;;1.30;;
11086;SDS011;5597;47.588;9.642;2023-04-25T11:31:10;1.30;;;1.20;;
11086;SDS011;5597;47.588;9.642;2023-04-25T11:33:36;1.97;;;1.30;;
11086;SDS011;5597;47.588;9.642;2023-04-25T11:36:01;1.23;;;1.13;;
11086;SDS011;5597;47.588;9.642;2023-04-25T11:38:27;1.37;;;1.20;;
11086;SDS011;5597;47.588;9.642;2023-04-25T11:40:53;1.20;;;1.10;;
11086;SDS011;5597;47.588;9.642;2023-04-25T11:43:22;3.30;;;1.40;;
11086;SDS011;5597;47.588;9.642;2023-04-25T11:45:51;2.10;;;1.10;;
11086;SDS011;5597;47.588;9.642;2023-04-25T11:48:17;0.97;;;0.93;;
11086;SDS011;5597;47.588;9.642;2023-04-25T11:50:43;1.33;;;0.97;;
11086;SDS011;5597;47.588;9.642;2023-04-25T11:53:10;0.80;;;0.80;;
11086;SDS011;5597;47.588;9.642;2023-04-25T11:55:35;0.97;;;0.90;;
11086;SDS011;5597;47.588;9.642;2023-04-25T11:58:01;0.90;;;0.80;;
11086;SDS011;5597;47.588;9.642;2023-04-25T12:00:29;1.07;;;0.90;;
11086;SDS011;5597;47.588;9.642;2023-04-25T12:02:55;1.00;;;0.87;;
11086;SDS011;5597;47.588;9.642;2023-04-25T12:05:28;1.07;;;0.80;;
11086;SDS011;5597;47.588;9.642;2023-04-25T12:07:58;0.93;;;0.80;;
11086;SDS011;5597;47.588;9.642;2023-04-25T12:10:36;0.70;;;0.70;;
11086;SDS011;5597;47.588;9.642;2023-04-25T12:13:17;0.80;;;0.80;;
11086;SDS011;5597;47.588;9.642;2023-04-25T12:15:49;1.00;;;0.90;;
11086;SDS011;5597;47.588;9.642;2023-04-25T12:18:18;0.60;;;0.60;;
11086;SDS011;5597;47.588;9.642;2023-04-25T12:20:46;1.53;;;0.70;;
11086;SDS011;5597;47.588;9.642;2023-04-25T12:23:11;1.33;;;0.83;;
11086;SDS011;5597;47.588;9.642;2023-04-25T12:25:38;2.27;;;1.00;;
11086;SDS011;5597;47.588;9.642;2023-04-25T12:28:20;1.00;;;0.90;;
11086;SDS011;5597;47.588;9.642;2023-04-25T12:31:02;1.70;;;1.20;;
11086;SDS011;5597;47.588;9.642;2023-04-25T12:33:32;0.77;;;0.77;;
11086;SDS011;5597;47.588;9.642;2023-04-25T12:35:59;1.30;;;1.20;;
11086;SDS011;5597;47.588;9.642;2023-04-25T12:38:29;1.10;;;1.00;;
11086;SDS011;5597;47.588;9.642;2023-04-25T12:40:56;1.00;;;0.90;;
11086;SDS011;5597;47.588;9.642;2023-04-25T12:43:23;0.97;;;0.90;;
11086;SDS011;5597;47.588;9.642;2023-04-25T12:45:52;0.77;;;0.77;;
11086;SDS011;5597;47.588;9.642;2023-04-25T12:48:19;1.67;;;1.17;;
11086;SDS011;5597;47.588;9.642;2023-04-25T12:50:46;1.00;;;0.70;;
11086;SDS011;5597;47.588;9.642;2023-04-25T12:53:14;1.07;;;0.70;;
11086;SDS011;5597;47.588;9.642;2023-04-25T12:55:49;0.80;;;0.80;;
11086;SDS011;5597;47.588;9.642;2023-04-25T12:58:16;0.63;;;0.60;;
11086;SDS011;5597;47.588;9.642;2023-04-25T13:00:43;0.90;;;0.70;;
11086;SDS011;5597;47.588;9.642;2023-04-25T13:03:10;1.03;;;0.60;;
11086;SDS011;5597;47.588;9.642;2023-04-25T13:05:36;0.70;;;0.60;;
11086;SDS011;5597;47.588;9.642;2023-04-25T13:08:02;1.00;;;0.83;;
11086;SDS011;5597;47.588;9.642;2023-04-25T13:10:27;1.23;;;0.73;;
11086;SDS011;5597;47.588;9.642;2023-04-25T13:12:53;0.60;;;0.60;;
11086;SDS011;5597;47.588;9.642;2023-04-25T13:15:19;0.77;;;0.70;;
11086;SDS011;5597;47.588;9.642;2023-04-25T13:17:45;0.70;;;0.60;;
11086;SDS011;5597;47.588;9.642;2023-04-25T13:20:11;0.60;;;0.60;;
11086;SDS011;5597;47.588;9.642;2023-04-25T13:22:37;0.60;;;0.60;;
11086;SDS011;5597;47.588;9.642;2023-04-25T13:25:04;0.50;;;0.50;;
11086;SDS011;5597;47.588;9.642;2023-04-25T13:27:31;1.03;;;0.50;;
11086;SDS011;5597;47.588;9.642;2023-04-25T13:29:58;0.60;;;0.50;;
11086;SDS011;5597;47.588;9.642;2023-04-25T13:32:25;0.67;;;0.60;;
11086;SDS011;5597;47.588;9.642;2023-04-25T13:34:51;1.33;;;0.60;;
11086;SDS011;5597;47.588;9.642;2023-04-25T13:37:17;0.50;;;0.50;;
11086;SDS011;5597;47.588;9.642;2023-04-25T13:39:43;0.70;;;0.50;;
11086;SDS011;5597;47.588;9.642;2023-04-25T13:42:09;1.27;;;0.70;;
11086;SDS011;5597;47.588;9.642;2023-04-25T13:44:35;0.97;;;0.83;;
11086;SDS011;5597;47.588;9.642;2023-04-25T13:47:01;0.70;;;0.57;;
11086;SDS011;5597;47.588;9.642;2023-04-25T13:49:27;0.60;;;0.60;;
11086;SDS011;5597;47.588;9.642;2023-04-25T13:51:53;0.50;;;0.50;;
11086;SDS011;5597;47.588;9.642;2023-04-25T13:54:18;0.37;;;0.37;;
11086;SDS011;5597;47.588;9.642;2023-04-25T13:56:44;0.30;;;0.30;;
11086;SDS011;5597;47.588;9.642;2023-04-25T13:59:10;0.40;;;0.40;;
11086;SDS011;5597;47.588;9.642;2023-04-25T14:01:36;1.00;;;0.90;;
11086;SDS011;5597;47.588;9.642;2023-04-25T14:04:02;1.00;;;0.80;;
11086;SDS011;5597;47.588;9.642;2023-04-25T14:06:31;0.80;;;0.80;;
11086;SDS011;5597;47.588;9.642;2023-04-25T14:08:57;1.23;;;0.67;;
11086;SDS011;5597;47.588;9.642;2023-04-25T14:11:22;0.90;;;0.90;;
11086;SDS011;5597;47.588;9.642;2023-04-25T14:13:48;0.40;;;0.40;;
11086;SDS011;5597;47.588;9.642;2023-04-25T14:16:14;1.00;;;0.80;;
11086;SDS011;5597;47.588;9.642;2023-04-25T15:00:19;1.60;;;1.30;;
11086;SDS011;5597;47.588;9.642;2023-04-25T15:02:47;1.23;;;1.07;;
11086;SDS011;5597;47.588;9.642;2023-04-25T15:05:13;1.93;;;1.47;;
11086;SDS011;5597;47.588;9.642;2023-04-25T15:07:40;1.70;;;1.60;;
11086;SDS011;5597;47.588;9.642;2023-04-25T15:10:06;1.67;;;1.40;;
11086;SDS011;5597;47.588;9.642;2023-04-25T15:12:38;1.57;;;1.10;;
11086;SDS011;5597;47.588;9.642;2023-04-25T15:15:04;1.70;;;1.27;;
11086;SDS011;5597;47.588;9.642;2023-04-25T15:17:31;1.67;;;1.20;;
11086;SDS011;5597;47.588;9.642;2023-04-25T15:19:56;1.20;;;1.10;;
11086;SDS011;5597;47.588;9.642;2023-04-25T15:22:22;1.30;;;1.10;;
11086;SDS011;5597;47.588;9.642;2023-04-25T15:24:48;1.07;;;0.97;;
11086;SDS011;5597;47.588;9.642;2023-04-25T15:27:13;1.03;;;0.93;;
11086;SDS011;5597;47.588;9.642;2023-04-25T15:29:39;1.10;;;1.00;;
11086;SDS011;5597;47.588;9.642;2023-04-25T15:32:05;1.20;;;1.10;;
11086;SDS011;5597;47.588;9.642;2023-04-25T15:34:31;1.10;;;1.00;;
11086;SDS011;5597;47.588;9.642;2023-04-25T15:36:56;3.07;;;1.30;;
11086;SDS011;5597;47.588;9.642;2023-04-25T15:39:23;1.37;;;1.13;;
11086;SDS011;5597;47.588;9.642;2023-04-25T15:41:48;2.00;;;1.00;;
11086;SDS011;5597;47.588;9.642;2023-04-25T15:44:14;2.30;;;1.70;;
11086;SDS011;5597;47.588;9.642;2023-04-25T15:46:39;1.53;;;1.40;;
11086;SDS011;5597;47.588;9.642;2023-04-25T15:49:05;1.70;;;1.47;;